createdAt,value
2022-11-24T00:00:03.932Z,997.01
2022-11-24T00:01:03.918Z,997.00
2022-11-24T00:02:04.059Z,997.01
2022-11-24T00:03:04.071Z,997.01
2022-11-24T00:04:03.871Z,997.01
2022-11-24T00:05:03.876Z,997.01
2022-11-24T00:06:03.855Z,997.00
2022-11-24T00:07:03.849Z,997.02
2022-11-24T00:08:03.955Z,997.03
2022-11-24T00:09:03.847Z,997.04
2022-11-24T00:10:03.811Z,997.07
2022-11-24T00:11:03.819Z,997.08
2022-11-24T00:12:03.789Z,997.08
2022-11-24T00:13:03.788Z,997.09
2022-11-24T00:14:03.773Z,997.10
2022-11-24T00:15:03.808Z,997.09
2022-11-24T00:16:03.804Z,997.10
2022-11-24T00:17:03.845Z,997.11
2022-11-24T00:18:03.724Z,997.14
2022-11-24T00:19:03.749Z,997.13
2022-11-24T00:20:03.704Z,997.15
2022-11-24T00:21:03.716Z,997.15
2022-11-24T00:22:03.684Z,997.16
2022-11-24T00:23:03.687Z,997.16
2022-11-24T00:24:03.665Z,997.20
2022-11-24T00:25:03.676Z,997.17
2022-11-24T00:26:03.641Z,997.19
2022-11-24T00:27:03.660Z,997.20
2022-11-24T00:28:03.619Z,997.20
2022-11-24T00:29:03.621Z,997.20
2022-11-24T00:30:03.597Z,997.20
2022-11-24T00:31:03.712Z,997.21
2022-11-24T00:32:03.588Z,997.22
2022-11-24T00:33:03.597Z,997.23
2022-11-24T00:34:03.562Z,997.20
2022-11-24T00:35:03.556Z,997.23
2022-11-24T00:36:03.558Z,997.25
2022-11-24T00:37:03.530Z,997.23
2022-11-24T00:38:03.526Z,997.26
2022-11-24T00:39:03.527Z,997.26
2022-11-24T00:40:03.507Z,997.29
2022-11-24T00:41:03.499Z,997.31
2022-11-24T00:42:03.505Z,997.30
2022-11-24T00:43:03.459Z,997.36
2022-11-24T00:44:03.472Z,997.32
2022-11-24T00:45:13.167Z,997.31
2022-11-24T00:46:03.577Z,997.31
2022-11-24T00:47:03.571Z,997.28
2022-11-24T00:48:03.435Z,997.26
2022-11-24T00:49:03.397Z,997.25
2022-11-24T00:50:03.395Z,997.26
2022-11-24T00:51:03.401Z,997.27
2022-11-24T00:52:03.378Z,997.26
2022-11-24T00:53:03.358Z,997.27
2022-11-24T00:54:03.359Z,997.29
2022-11-24T00:55:03.341Z,997.31
2022-11-24T00:56:03.350Z,997.32
2022-11-24T00:57:03.337Z,997.32
2022-11-24T00:58:03.329Z,997.32
2022-11-24T00:59:03.301Z,997.36
2022-11-24T01:00:03.311Z,997.34
2022-11-24T01:01:03.292Z,997.38
2022-11-24T01:02:03.349Z,997.38
2022-11-24T01:03:03.346Z,997.41
2022-11-24T01:04:03.259Z,997.39
2022-11-24T01:05:03.258Z,997.42
2022-11-24T01:06:03.239Z,997.44
2022-11-24T01:07:03.232Z,997.47
2022-11-24T01:08:03.235Z,997.47
2022-11-24T01:09:03.234Z,997.50
2022-11-24T01:10:03.192Z,997.48
2022-11-24T01:11:03.173Z,997.49
2022-11-24T01:12:03.183Z,997.50
2022-11-24T01:13:03.144Z,997.50
2022-11-24T01:14:03.151Z,997.52
2022-11-24T01:15:03.141Z,997.50
2022-11-24T01:16:03.187Z,997.52
2022-11-24T01:17:03.103Z,997.56
2022-11-24T01:18:03.101Z,997.58
2022-11-24T01:19:03.082Z,997.58
2022-11-24T01:20:03.099Z,997.61
2022-11-24T01:21:08.554Z,997.62
2022-11-24T01:22:03.079Z,997.62
2022-11-24T01:23:03.059Z,997.62
2022-11-24T01:24:03.047Z,997.62
2022-11-24T01:25:03.025Z,997.63
2022-11-24T01:26:03.016Z,997.62
2022-11-24T01:27:03.022Z,997.66
2022-11-24T01:28:03.051Z,997.62
2022-11-24T01:29:02.978Z,997.64
2022-11-24T01:30:02.980Z,997.66
2022-11-24T01:31:03.065Z,997.66
2022-11-24T01:32:02.953Z,997.67
2022-11-24T01:33:02.957Z,997.64
2022-11-24T01:34:02.939Z,997.65
2022-11-24T01:35:02.917Z,997.64
2022-11-24T01:36:02.919Z,997.64
2022-11-24T01:37:02.961Z,997.64
2022-11-24T01:38:02.902Z,997.66
2022-11-24T01:39:02.973Z,997.65
2022-11-24T01:40:02.895Z,997.65
2022-11-24T01:41:02.857Z,997.67
2022-11-24T01:42:02.847Z,997.66
2022-11-24T01:43:02.842Z,997.68
2022-11-24T01:44:02.836Z,997.68
2022-11-24T01:45:02.833Z,997.70
2022-11-24T01:46:02.883Z,997.72
2022-11-24T01:47:02.794Z,997.73
2022-11-24T01:48:02.788Z,997.73
2022-11-24T01:49:02.773Z,997.76
2022-11-24T01:50:02.770Z,997.79
2022-11-24T01:51:02.771Z,997.80
2022-11-24T01:52:02.754Z,997.81
2022-11-24T01:53:02.735Z,997.83
2022-11-24T01:54:02.727Z,997.85
2022-11-24T01:55:02.705Z,997.87
2022-11-24T01:56:02.707Z,997.88
2022-11-24T01:57:02.722Z,997.86
2022-11-24T01:58:02.681Z,997.89
2022-11-24T01:59:02.660Z,997.89
2022-11-24T02:00:02.662Z,997.89
2022-11-24T02:01:02.725Z,997.90
2022-11-24T02:02:02.647Z,997.89
2022-11-24T02:03:02.703Z,997.91
2022-11-24T02:04:02.677Z,997.90
2022-11-24T02:05:02.603Z,997.90
2022-11-24T02:06:02.596Z,997.89
2022-11-24T02:07:02.583Z,997.87
2022-11-24T02:08:02.588Z,997.88
2022-11-24T02:09:02.597Z,997.87
2022-11-24T02:10:02.567Z,997.89
2022-11-24T02:11:02.535Z,997.91
2022-11-24T02:12:02.556Z,997.90
2022-11-24T02:13:02.518Z,997.92
2022-11-24T02:14:02.546Z,997.92
2022-11-24T02:15:02.542Z,997.92
2022-11-24T02:16:02.576Z,997.90
2022-11-24T02:17:02.505Z,997.91
2022-11-24T02:18:02.470Z,997.92
2022-11-24T02:19:02.460Z,997.92
2022-11-24T02:20:02.463Z,997.93
2022-11-24T02:21:02.460Z,997.93
2022-11-24T02:22:02.442Z,997.95
2022-11-24T02:23:02.407Z,997.96
2022-11-24T02:24:02.407Z,997.97
2022-11-24T02:25:02.403Z,998.00
2022-11-24T02:26:02.384Z,998.00
2022-11-24T02:27:02.394Z,998.00
2022-11-24T02:28:02.366Z,998.00
2022-11-24T02:29:02.346Z,998.02
2022-11-24T02:30:02.344Z,998.05
2022-11-24T02:31:02.458Z,998.05
2022-11-24T02:32:02.341Z,998.07
2022-11-24T02:33:02.321Z,998.08
2022-11-24T02:34:02.302Z,998.10
2022-11-24T02:35:02.283Z,998.11
2022-11-24T02:36:02.277Z,998.12
2022-11-24T02:37:02.259Z,998.13
2022-11-24T02:38:02.264Z,998.12
2022-11-24T02:39:02.258Z,998.13
2022-11-24T02:40:02.257Z,998.13
2022-11-24T02:41:02.222Z,998.13
2022-11-24T02:42:02.216Z,998.16
2022-11-24T02:43:02.209Z,998.15
2022-11-24T02:44:02.199Z,998.13
2022-11-24T02:45:02.204Z,998.13
2022-11-24T02:46:02.195Z,998.13
2022-11-24T02:47:02.164Z,998.12
2022-11-24T02:48:02.153Z,998.14
2022-11-24T02:49:02.137Z,998.14
2022-11-24T02:50:02.133Z,998.17
2022-11-24T02:51:02.132Z,998.18
2022-11-24T02:52:02.118Z,998.21
2022-11-24T02:53:02.094Z,998.21
2022-11-24T02:54:02.099Z,998.23
2022-11-24T02:55:02.076Z,998.22
2022-11-24T02:56:02.073Z,998.22
2022-11-24T02:57:02.094Z,998.22
2022-11-24T02:58:02.051Z,998.24
2022-11-24T02:59:02.032Z,998.26
2022-11-24T03:00:02.032Z,998.24
2022-11-24T03:01:02.015Z,998.23
2022-11-24T03:02:02.035Z,998.26
2022-11-24T03:03:02.042Z,998.28
2022-11-24T03:04:01.984Z,998.28
2022-11-24T03:05:01.972Z,998.30
2022-11-24T03:06:01.973Z,998.30
2022-11-24T03:07:01.943Z,998.32
2022-11-24T03:08:01.945Z,998.32
2022-11-24T03:09:01.948Z,998.30
2022-11-24T03:10:01.923Z,998.29
2022-11-24T03:11:01.912Z,998.31
2022-11-24T03:12:01.909Z,998.30
2022-11-24T03:13:01.883Z,998.32
2022-11-24T03:14:01.881Z,998.33
2022-11-24T03:15:01.875Z,998.32
2022-11-24T03:16:01.939Z,998.36
2022-11-24T03:17:01.848Z,998.36
2022-11-24T03:18:01.847Z,998.36
2022-11-24T03:19:01.819Z,998.38
2022-11-24T03:20:04.962Z,998.37
2022-11-24T03:21:01.832Z,998.39
2022-11-24T03:22:01.804Z,998.38
2022-11-24T03:23:01.778Z,998.40
2022-11-24T03:24:01.781Z,998.40
2022-11-24T03:25:01.759Z,998.40
2022-11-24T03:26:01.754Z,998.42
2022-11-24T03:27:01.764Z,998.40
2022-11-24T03:28:01.737Z,998.41
2022-11-24T03:29:01.713Z,998.42
2022-11-24T03:30:01.714Z,998.40
2022-11-24T03:31:01.735Z,998.39
2022-11-24T03:32:01.701Z,998.41
2022-11-24T03:33:01.697Z,998.40
2022-11-24T03:34:01.675Z,998.42
2022-11-24T03:35:01.653Z,998.42
2022-11-24T03:36:01.656Z,998.44
2022-11-24T03:37:01.630Z,998.44
2022-11-24T03:38:01.633Z,998.44
2022-11-24T03:39:01.630Z,998.47
2022-11-24T03:40:01.607Z,998.47
2022-11-24T03:41:01.595Z,998.48
2022-11-24T03:42:01.586Z,998.46
2022-11-24T03:43:01.583Z,998.47
2022-11-24T03:44:01.563Z,998.48
2022-11-24T03:45:16.685Z,998.47
2022-11-24T03:46:01.633Z,998.46
2022-11-24T03:47:01.525Z,998.48
2022-11-24T03:48:01.524Z,998.49
2022-11-24T03:49:01.509Z,998.49
2022-11-24T03:50:01.501Z,998.50
2022-11-24T03:51:01.498Z,998.48
2022-11-24T03:52:06.542Z,998.52
2022-11-24T03:53:01.466Z,998.50
2022-11-24T03:54:01.466Z,998.52
2022-11-24T03:55:01.439Z,998.56
2022-11-24T03:56:01.439Z,998.54
2022-11-24T03:57:01.440Z,998.51
2022-11-24T03:58:01.422Z,998.54
2022-11-24T03:59:01.412Z,998.56
2022-11-24T04:00:01.399Z,998.60
2022-11-24T04:01:01.389Z,998.63
2022-11-24T04:02:01.411Z,998.65
2022-11-24T04:03:01.481Z,998.65
2022-11-24T04:04:01.357Z,998.66
2022-11-24T04:05:01.333Z,998.67
2022-11-24T04:06:01.336Z,998.67
2022-11-24T04:07:01.314Z,998.70
2022-11-24T04:08:01.322Z,998.66
2022-11-24T04:09:01.308Z,998.66
2022-11-24T04:10:01.307Z,998.67
2022-11-24T04:11:01.274Z,998.67
2022-11-24T04:12:01.271Z,998.67
2022-11-24T04:13:01.251Z,998.69
2022-11-24T04:14:01.249Z,998.70
2022-11-24T04:15:01.249Z,998.68
2022-11-24T04:16:01.260Z,998.66
2022-11-24T04:17:01.210Z,998.70
2022-11-24T04:18:01.207Z,998.68
2022-11-24T04:19:01.192Z,998.67
2022-11-24T04:20:01.194Z,998.67
2022-11-24T04:21:01.206Z,998.70
2022-11-24T04:22:01.173Z,998.72
2022-11-24T04:23:01.145Z,998.80
2022-11-24T04:24:01.144Z,998.79
2022-11-24T04:25:01.129Z,998.81
2022-11-24T04:26:01.128Z,998.80
2022-11-24T04:27:01.119Z,998.80
2022-11-24T04:28:01.110Z,998.79
2022-11-24T04:29:01.083Z,998.78
2022-11-24T04:30:01.091Z,998.77
2022-11-24T04:31:01.132Z,998.79
2022-11-24T04:32:01.074Z,998.79
2022-11-24T04:33:01.069Z,998.79
2022-11-24T04:34:01.038Z,998.82
2022-11-24T04:35:01.018Z,998.83
2022-11-24T04:36:01.018Z,998.86
2022-11-24T04:37:01.001Z,998.86
2022-11-24T04:38:00.996Z,998.89
2022-11-24T04:39:19.652Z,998.91
2022-11-24T04:40:00.979Z,998.92
2022-11-24T04:41:00.965Z,998.90
2022-11-24T04:42:00.953Z,998.93
2022-11-24T04:43:00.942Z,998.98
2022-11-24T04:44:00.937Z,998.99
2022-11-24T04:45:00.930Z,998.99
2022-11-24T04:46:00.913Z,999.01
2022-11-24T04:47:00.974Z,999.03
2022-11-24T04:48:00.890Z,999.07
2022-11-24T04:49:00.879Z,999.10
2022-11-24T04:50:00.878Z,999.10
2022-11-24T04:51:00.866Z,999.12
2022-11-24T04:52:00.854Z,999.08
2022-11-24T04:53:00.840Z,999.05
2022-11-24T04:54:00.817Z,999.09
2022-11-24T04:55:00.818Z,999.07
2022-11-24T04:56:00.796Z,999.11
2022-11-24T04:57:00.819Z,999.12
2022-11-24T04:58:00.778Z,999.15
2022-11-24T04:59:05.137Z,999.14
2022-11-24T05:00:00.773Z,999.15
2022-11-24T05:01:00.757Z,999.15
2022-11-24T05:02:00.819Z,999.15
2022-11-24T05:03:00.744Z,999.16
2022-11-24T05:04:00.725Z,999.17
2022-11-24T05:05:00.713Z,999.17
2022-11-24T05:06:00.694Z,999.19
2022-11-24T05:07:00.693Z,999.19
2022-11-24T05:08:00.746Z,999.21
2022-11-24T05:09:00.683Z,999.21
2022-11-24T05:10:00.662Z,999.22
2022-11-24T05:11:00.663Z,999.22
2022-11-24T05:12:00.631Z,999.23
2022-11-24T05:13:00.630Z,999.28
2022-11-24T05:14:00.639Z,999.29
2022-11-24T05:15:00.622Z,999.31
2022-11-24T05:16:00.631Z,999.32
2022-11-24T05:17:00.599Z,999.32
2022-11-24T05:18:00.569Z,999.33
2022-11-24T05:19:00.609Z,999.36
2022-11-24T05:20:00.556Z,999.38
2022-11-24T05:21:00.562Z,999.41
2022-11-24T05:22:00.527Z,999.43
2022-11-24T05:23:00.539Z,999.46
2022-11-24T05:24:00.503Z,999.47
2022-11-24T05:25:00.525Z,999.47
2022-11-24T05:26:00.485Z,999.50
2022-11-24T05:27:00.495Z,999.53
2022-11-24T05:28:00.464Z,999.53
2022-11-24T05:29:00.483Z,999.53
2022-11-24T05:30:00.455Z,999.58
2022-11-24T05:31:00.582Z,999.61
2022-11-24T05:32:00.424Z,999.63
2022-11-24T05:33:00.464Z,999.61
2022-11-24T05:34:00.412Z,999.62
2022-11-24T05:35:00.418Z,999.63
2022-11-24T05:36:00.405Z,999.64
2022-11-24T05:37:00.408Z,999.65
2022-11-24T05:38:00.385Z,999.67
2022-11-24T05:39:00.381Z,999.67
2022-11-24T05:40:00.337Z,999.68
2022-11-24T05:41:00.384Z,999.68
2022-11-24T05:42:00.328Z,999.68
2022-11-24T05:43:00.331Z,999.70
2022-11-24T05:44:00.291Z,999.70
2022-11-24T05:45:00.308Z,999.72
2022-11-24T05:46:00.271Z,999.73
2022-11-24T05:47:00.389Z,999.74
2022-11-24T05:48:00.252Z,999.74
2022-11-24T05:49:00.271Z,999.76
2022-11-24T05:50:00.248Z,999.79
2022-11-24T05:51:01.575Z,999.79
2022-11-24T05:52:00.221Z,999.80
2022-11-24T05:53:00.222Z,999.83
2022-11-24T05:54:00.200Z,999.83
2022-11-24T05:55:00.208Z,999.85
2022-11-24T05:56:00.172Z,999.87
2022-11-24T05:57:00.176Z,999.88
2022-11-24T05:58:00.162Z,999.89
2022-11-24T05:59:03.087Z,999.92
2022-11-24T06:00:00.150Z,999.92
2022-11-24T06:01:00.140Z,999.92
2022-11-24T06:02:00.241Z,999.96
2022-11-24T06:03:00.301Z,999.96
2022-11-24T06:04:00.107Z,999.98
2022-11-24T06:05:00.116Z,999.99
2022-11-24T06:06:00.080Z,999.98
2022-11-24T06:07:00.081Z,999.98
2022-11-24T06:08:00.044Z,999.98
2022-11-24T06:09:00.067Z,1000.00
2022-11-24T06:10:00.026Z,1000.01
2022-11-24T06:11:00.031Z,1000.04
2022-11-24T06:11:59.998Z,1000.04
2022-11-24T06:13:00.022Z,1000.03
2022-11-24T06:14:00.054Z,1000.04
2022-11-24T06:14:59.998Z,1000.06
2022-11-24T06:16:00.024Z,1000.06
2022-11-24T06:16:59.970Z,1000.06
2022-11-24T06:17:59.976Z,1000.09
2022-11-24T06:18:59.956Z,1000.10
2022-11-24T06:20:00.063Z,1000.11
2022-11-24T06:21:10.246Z,1000.13
2022-11-24T06:21:59.922Z,1000.12
2022-11-24T06:22:59.908Z,1000.12
2022-11-24T06:23:59.901Z,1000.13
2022-11-24T06:24:59.902Z,1000.16
2022-11-24T06:25:59.848Z,1000.18
2022-11-24T06:26:59.862Z,1000.20
2022-11-24T06:27:59.834Z,1000.22
2022-11-24T06:28:59.841Z,1000.22
2022-11-24T06:29:59.809Z,1000.23
2022-11-24T06:30:59.848Z,1000.25
2022-11-24T06:31:59.905Z,1000.26
2022-11-24T06:32:59.799Z,1000.30
2022-11-24T06:33:59.776Z,1000.32
2022-11-24T06:34:59.782Z,1000.32
2022-11-24T06:35:59.774Z,1000.32
2022-11-24T06:36:59.756Z,1000.30
2022-11-24T06:37:59.724Z,1000.31
2022-11-24T06:38:59.735Z,1000.31
2022-11-24T06:39:59.705Z,1000.32
2022-11-24T06:40:59.725Z,1000.32
2022-11-24T06:41:59.695Z,1000.33
2022-11-24T06:42:59.692Z,1000.34
2022-11-24T06:43:59.660Z,1000.33
2022-11-24T06:45:00.376Z,1000.35
2022-11-24T06:45:59.684Z,1000.34
2022-11-24T06:46:59.702Z,1000.34
2022-11-24T06:47:59.620Z,1000.34
2022-11-24T06:48:59.638Z,1000.36
2022-11-24T06:49:59.598Z,1000.37
2022-11-24T06:50:59.608Z,1000.37
2022-11-24T06:51:59.577Z,1000.37
2022-11-24T06:52:59.601Z,1000.37
2022-11-24T06:53:59.552Z,1000.38
2022-11-24T06:54:59.567Z,1000.38
2022-11-24T06:55:59.537Z,1000.39
2022-11-24T06:56:59.543Z,1000.41
2022-11-24T06:57:59.523Z,1000.41
2022-11-24T06:58:59.533Z,1000.43
2022-11-24T06:59:59.490Z,1000.44
2022-11-24T07:00:59.540Z,1000.45
2022-11-24T07:01:59.471Z,1000.46
2022-11-24T07:02:59.536Z,1000.47
2022-11-24T07:03:59.463Z,1000.49
2022-11-24T07:04:59.463Z,1000.51
2022-11-24T07:05:59.426Z,1000.52
2022-11-24T07:06:59.443Z,1000.54
2022-11-24T07:07:59.405Z,1000.56
2022-11-24T07:08:59.472Z,1000.58
2022-11-24T07:09:59.386Z,1000.60
2022-11-24T07:10:59.400Z,1000.62
2022-11-24T07:11:59.367Z,1000.64
2022-11-24T07:12:59.381Z,1000.66
2022-11-24T07:14:00.219Z,1000.67
2022-11-24T07:14:59.366Z,1000.69
2022-11-24T07:15:59.356Z,1000.70
2022-11-24T07:16:59.356Z,1000.73
2022-11-24T07:17:59.306Z,1000.75
2022-11-24T07:18:59.316Z,1000.79
2022-11-24T07:19:59.303Z,1000.80
2022-11-24T07:20:59.303Z,1000.81
2022-11-24T07:21:59.262Z,1000.83
2022-11-24T07:22:59.274Z,1000.84
2022-11-24T07:23:59.246Z,1000.84
2022-11-24T07:24:59.250Z,1000.85
2022-11-24T07:26:03.733Z,1000.85
2022-11-24T07:26:59.243Z,1000.85
2022-11-24T07:27:59.195Z,1000.87
2022-11-24T07:28:59.209Z,1000.89
2022-11-24T07:29:59.173Z,1000.89
2022-11-24T07:30:59.213Z,1000.92
2022-11-24T07:32:04.967Z,1000.92
2022-11-24T07:32:59.182Z,1000.93
2022-11-24T07:33:59.135Z,1000.94
2022-11-24T07:34:59.147Z,1000.96
2022-11-24T07:35:59.111Z,1000.98
2022-11-24T07:36:59.164Z,1000.99
2022-11-24T07:37:59.090Z,1001.00
2022-11-24T07:38:59.107Z,1001.01
2022-11-24T07:39:59.067Z,1001.04
2022-11-24T07:40:59.087Z,1001.06
2022-11-24T07:41:59.078Z,1001.09
2022-11-24T07:42:59.061Z,1001.07
2022-11-24T07:43:59.029Z,1001.08
2022-11-24T07:44:59.037Z,1001.09
2022-11-24T07:45:59.072Z,1001.09
2022-11-24T07:46:59.022Z,1001.09
2022-11-24T07:47:59.000Z,1001.09
2022-11-24T07:48:58.996Z,1001.09
2022-11-24T07:49:58.966Z,1001.12
2022-11-24T07:50:58.981Z,1001.12
2022-11-24T07:51:58.945Z,1001.14
2022-11-24T07:52:58.971Z,1001.15
2022-11-24T07:53:58.925Z,1001.15
2022-11-24T07:54:58.932Z,1001.20
2022-11-24T07:55:58.898Z,1001.20
2022-11-24T07:56:58.914Z,1001.23
2022-11-24T07:57:58.880Z,1001.22
2022-11-24T07:58:58.916Z,1001.25
2022-11-24T07:59:58.860Z,1001.27
2022-11-24T08:00:58.871Z,1001.27
2022-11-24T08:01:58.911Z,1001.29
2022-11-24T08:02:58.851Z,1001.31
2022-11-24T08:03:58.936Z,1001.29
2022-11-24T08:04:58.835Z,1001.31
2022-11-24T08:06:58.824Z,1001.33
2022-11-24T08:07:58.851Z,1001.33
2022-11-24T08:08:58.823Z,1001.33
2022-11-24T08:09:58.771Z,1001.41
2022-11-24T08:10:58.771Z,1001.40
2022-11-24T08:11:58.759Z,1001.37
2022-11-24T08:12:58.743Z,1001.38
2022-11-24T08:13:58.716Z,1001.37
2022-11-24T08:14:58.748Z,1001.40
2022-11-24T08:15:58.715Z,1001.40
2022-11-24T08:16:58.733Z,1001.42
2022-11-24T08:17:58.667Z,1001.45
2022-11-24T08:18:58.693Z,1001.45
2022-11-24T08:19:58.646Z,1001.47
2022-11-24T08:20:58.674Z,1001.49
2022-11-24T08:21:58.632Z,1001.50
2022-11-24T08:22:58.660Z,1001.52
2022-11-24T08:23:58.611Z,1001.52
2022-11-24T08:24:58.630Z,1001.54
2022-11-24T08:25:58.614Z,1001.53
2022-11-24T08:26:58.598Z,1001.58
2022-11-24T08:27:58.569Z,1001.57
2022-11-24T08:28:58.577Z,1001.56
2022-11-24T08:29:58.541Z,1001.62
2022-11-24T08:30:58.553Z,1001.63
2022-11-24T08:31:58.628Z,1001.81
2022-11-24T08:32:58.539Z,1001.65
2022-11-24T08:33:58.503Z,1001.66
2022-11-24T08:35:13.017Z,1001.67
2022-11-24T08:35:58.506Z,1001.68
2022-11-24T08:36:58.514Z,1001.75
2022-11-24T08:38:04.390Z,1001.70
2022-11-24T08:38:58.500Z,1001.75
2022-11-24T08:39:58.439Z,1001.74
2022-11-24T08:40:58.450Z,1001.72
2022-11-24T08:41:58.419Z,1001.74
2022-11-24T08:42:58.437Z,1001.77
2022-11-24T08:43:58.392Z,1001.76
2022-11-24T08:44:59.167Z,1001.79
2022-11-24T08:45:58.492Z,1001.78
2022-11-24T08:46:58.385Z,1001.81
2022-11-24T08:47:58.374Z,1001.86
2022-11-24T08:48:58.367Z,1001.85
2022-11-24T08:49:58.334Z,1001.85
2022-11-24T08:50:58.348Z,1001.86
2022-11-24T08:51:58.309Z,1001.89
2022-11-24T08:52:58.336Z,1001.91
2022-11-24T08:53:58.473Z,1001.91
2022-11-24T08:54:58.298Z,1001.89
2022-11-24T08:55:58.276Z,1001.93
2022-11-24T08:56:58.282Z,1001.93
2022-11-24T08:57:58.246Z,1001.95
2022-11-24T08:58:58.389Z,1001.99
2022-11-24T08:59:58.229Z,1002.03
2022-11-24T09:00:58.291Z,1002.07
2022-11-24T09:01:58.293Z,1002.10
2022-11-24T09:02:58.221Z,1002.14
2022-11-24T09:03:58.228Z,1002.17
2022-11-24T09:04:58.208Z,1002.16
2022-11-24T09:05:58.168Z,1002.25
2022-11-24T09:06:58.176Z,1002.17
2022-11-24T09:07:58.223Z,1002.23
2022-11-24T09:08:58.130Z,1002.25
2022-11-24T09:09:58.157Z,1002.24
2022-11-24T09:10:58.107Z,1002.22
2022-11-24T09:11:58.129Z,1002.22
2022-11-24T09:12:58.089Z,1002.26
2022-11-24T09:13:58.098Z,1002.24
2022-11-24T09:14:58.076Z,1002.28
2022-11-24T09:15:58.088Z,1002.32
2022-11-24T09:16:58.153Z,1002.37
2022-11-24T09:17:58.066Z,1002.39
2022-11-24T09:18:58.035Z,1002.41
2022-11-24T09:19:58.037Z,1002.40
2022-11-24T09:20:58.015Z,1002.35
2022-11-24T09:21:58.022Z,1002.33
2022-11-24T09:22:57.982Z,1002.37
2022-11-24T09:23:57.992Z,1002.38
2022-11-24T09:24:57.959Z,1002.36
2022-11-24T09:25:57.975Z,1002.38
2022-11-24T09:26:57.951Z,1002.36
2022-11-24T09:27:57.954Z,1002.37
2022-11-24T09:28:57.950Z,1002.40
2022-11-24T09:29:57.932Z,1002.41
2022-11-24T09:30:57.923Z,1002.45
2022-11-24T09:32:02.123Z,1002.47
2022-11-24T09:32:57.895Z,1002.48
2022-11-24T09:33:57.892Z,1002.51
2022-11-24T09:34:57.852Z,1002.51
2022-11-24T09:35:57.872Z,1002.55
2022-11-24T09:36:57.853Z,1002.52
2022-11-24T09:37:57.856Z,1002.55
2022-11-24T09:38:57.831Z,1002.57
2022-11-24T09:39:57.832Z,1002.59
2022-11-24T09:40:58.760Z,1002.58
2022-11-24T09:41:57.804Z,1002.59
2022-11-24T09:42:57.823Z,1002.62
2022-11-24T09:43:57.779Z,1002.61
2022-11-24T09:44:57.747Z,1002.61
2022-11-24T09:46:05.439Z,1002.64
2022-11-24T09:46:57.776Z,1002.63
2022-11-24T09:47:57.740Z,1002.62
2022-11-24T09:48:57.719Z,1002.65
2022-11-24T09:49:57.727Z,1002.64
2022-11-24T09:50:57.688Z,1002.65
2022-11-24T09:51:57.707Z,1002.65
2022-11-24T09:52:57.662Z,1002.67
2022-11-24T09:53:57.687Z,1002.75
2022-11-24T09:54:57.646Z,1002.71
2022-11-24T09:55:57.669Z,1002.76
2022-11-24T09:56:57.621Z,1002.74
2022-11-24T09:57:57.642Z,1002.75
2022-11-24T09:58:57.604Z,1002.79
2022-11-24T09:59:57.625Z,1002.79
2022-11-24T10:00:57.689Z,1002.80
2022-11-24T10:01:57.626Z,1002.79
2022-11-24T10:02:57.563Z,1002.82
2022-11-24T10:04:02.597Z,1002.83
2022-11-24T10:04:57.713Z,1002.85
2022-11-24T10:05:57.549Z,1002.85
2022-11-24T10:06:57.520Z,1002.88
2022-11-24T10:07:57.612Z,1002.89
2022-11-24T10:08:57.499Z,1002.93
2022-11-24T10:09:57.554Z,1002.94
2022-11-24T10:10:57.483Z,1002.98
2022-11-24T10:11:57.506Z,1002.98
2022-11-24T10:12:57.463Z,1003.05
2022-11-24T10:13:57.463Z,1003.00
2022-11-24T10:14:57.432Z,1003.02
2022-11-24T10:15:57.534Z,1003.03
2022-11-24T10:16:57.408Z,1003.06
2022-11-24T10:17:57.429Z,1003.10
2022-11-24T10:18:57.398Z,1003.06
2022-11-24T10:19:57.405Z,1003.09
2022-11-24T10:20:57.373Z,1003.09
2022-11-24T10:21:57.391Z,1003.11
2022-11-24T10:22:57.350Z,1003.13
2022-11-24T10:23:57.409Z,1003.13
2022-11-24T10:24:57.344Z,1003.14
2022-11-24T10:25:57.339Z,1003.18
2022-11-24T10:26:57.387Z,1003.20
2022-11-24T10:27:57.320Z,1003.21
2022-11-24T10:28:57.296Z,1003.22
2022-11-24T10:29:57.322Z,1003.22
2022-11-24T10:30:57.321Z,1003.22
2022-11-24T10:31:57.279Z,1003.22
2022-11-24T10:32:57.265Z,1003.25
2022-11-24T10:33:57.252Z,1003.25
2022-11-24T10:34:57.254Z,1003.24
2022-11-24T10:35:57.244Z,1003.25
2022-11-24T10:36:57.199Z,1003.24
2022-11-24T10:37:57.245Z,1003.25
2022-11-24T10:38:57.176Z,1003.25
2022-11-24T10:40:00.056Z,1003.26
2022-11-24T10:40:58.248Z,1003.24
2022-11-24T10:41:57.171Z,1003.24
2022-11-24T10:42:57.139Z,1003.23
2022-11-24T10:43:57.157Z,1003.24
2022-11-24T10:44:57.119Z,1003.27
2022-11-24T10:45:57.185Z,1003.23
2022-11-24T10:46:57.167Z,1003.23
2022-11-24T10:47:57.105Z,1003.23
2022-11-24T10:48:57.102Z,1003.20
2022-11-24T10:49:57.085Z,1003.21
2022-11-24T10:50:57.054Z,1003.24
2022-11-24T10:51:57.080Z,1003.23
2022-11-24T10:52:57.032Z,1003.24
2022-11-24T10:53:59.696Z,1003.24
2022-11-24T10:54:57.023Z,1003.31
2022-11-24T10:55:57.048Z,1003.31
2022-11-24T10:56:57.008Z,1003.31
2022-11-24T10:57:57.003Z,1003.36
2022-11-24T10:58:56.972Z,1003.34
2022-11-24T10:59:57.023Z,1003.37
2022-11-24T11:00:57.175Z,1003.38
2022-11-24T11:01:57.002Z,1003.39
2022-11-24T11:02:57.053Z,1003.40
2022-11-24T11:03:56.953Z,1003.41
2022-11-24T11:04:56.903Z,1003.41
2022-11-24T11:05:56.931Z,1003.41
2022-11-24T11:06:56.893Z,1003.44
2022-11-24T11:08:00.918Z,1003.44
2022-11-24T11:08:56.881Z,1003.46
2022-11-24T11:09:56.885Z,1003.46
2022-11-24T11:10:56.878Z,1003.46
2022-11-24T11:11:59.006Z,1003.48
2022-11-24T11:12:56.837Z,1003.48
2022-11-24T11:14:02.920Z,1003.47
2022-11-24T11:14:56.848Z,1003.47
2022-11-24T11:15:56.840Z,1003.46
2022-11-24T11:16:56.793Z,1003.48
2022-11-24T11:17:56.808Z,1003.49
2022-11-24T11:18:56.759Z,1003.49
2022-11-24T11:20:01.989Z,1003.52
2022-11-24T11:20:56.746Z,1003.49
2022-11-24T11:21:56.775Z,1003.51
2022-11-24T11:22:56.717Z,1003.47
2022-11-24T11:23:56.724Z,1003.50
2022-11-24T11:24:56.689Z,1003.52
2022-11-24T11:25:56.709Z,1003.49
2022-11-24T11:26:56.673Z,1003.52
2022-11-24T11:27:56.690Z,1003.52
2022-11-24T11:28:56.775Z,1003.52
2022-11-24T11:31:16.527Z,1003.54
2022-11-24T11:34:06.254Z,1003.58
2022-11-24T11:34:56.591Z,1003.57
2022-11-24T11:35:56.599Z,1003.57
2022-11-24T11:36:56.566Z,1003.60
2022-11-24T11:37:56.600Z,1003.59
2022-11-24T11:38:56.560Z,1003.61
2022-11-24T11:39:56.554Z,1003.63
2022-11-24T11:40:56.520Z,1003.65
2022-11-24T11:41:56.533Z,1003.64
2022-11-24T11:43:04.104Z,1003.62
2022-11-24T11:43:56.534Z,1003.65
2022-11-24T11:44:56.481Z,1003.69
2022-11-24T11:45:56.737Z,1003.68
2022-11-24T11:46:56.521Z,1003.71
2022-11-24T11:47:56.468Z,1003.69
2022-11-24T11:48:56.450Z,1003.71
2022-11-24T11:49:56.448Z,1003.68
2022-11-24T11:51:56.436Z,1003.69
2022-11-24T11:52:56.402Z,1003.70
2022-11-24T11:53:56.452Z,1003.68
2022-11-24T11:54:56.387Z,1003.71
2022-11-24T11:55:56.390Z,1003.70
2022-11-24T11:56:56.352Z,1003.70
2022-11-24T11:57:56.368Z,1003.70
2022-11-24T11:58:56.340Z,1003.70
2022-11-24T11:59:56.355Z,1003.69
2022-11-24T12:00:56.329Z,1003.73
2022-11-24T12:01:56.326Z,1003.73
2022-11-24T12:02:56.574Z,1003.71
2022-11-24T12:03:56.428Z,1003.75
2022-11-24T12:04:56.280Z,1003.76
2022-11-24T12:05:56.293Z,1003.76
2022-11-24T12:06:56.246Z,1003.79
2022-11-24T12:07:56.393Z,1003.76
2022-11-24T12:09:19.434Z,1003.82
2022-11-24T12:09:56.242Z,1003.78
2022-11-24T12:10:56.228Z,1003.80
2022-11-24T12:11:56.243Z,1003.79
2022-11-24T12:12:56.182Z,1003.84
2022-11-24T12:13:56.194Z,1003.88
2022-11-24T12:14:56.157Z,1003.85
2022-11-24T12:15:56.333Z,1003.83
2022-11-24T12:16:56.152Z,1003.87
2022-11-24T12:17:56.152Z,1003.88
2022-11-24T12:18:57.988Z,1003.92
2022-11-24T12:19:56.129Z,1003.96
2022-11-24T12:20:56.108Z,1003.96